Time;durP1;ratioP1;P1;durP2;ratioP2;P2;SDS_P1;SDS_P2;PMS_P1;PMS_P2;Temp;Humidity;BMP_temperature;BMP_pressure;BME280_temperature;BME280_humidity;BME280_pressure;Samples;Min_cycle;Max_cycle;Signal;HPM_P1;HPM_P2
2022/01/26 00:00:58;;;;;;;81.25;33.50;;;;;;;-145.00;100.00;60578.66;5074599;28;20056;-52
2022/01/26 00:06:18;;;;;;;69.95;31.33;;;;;;;-145.00;100.00;60578.66;5075910;28;20083;-52
2022/01/26 00:08:48;;;;;;;68.43;33.10;;;;;;;-145.00;100.00;60578.66;5074401;28;20139;-52
2022/01/26 00:11:16;;;;;;;76.43;33.53;;;;;;;-145.00;100.00;60578.66;5075472;28;20118;-52
2022/01/26 00:56:04;;;;;;;86.90;36.22;;;;;;;-145.00;100.00;60578.66;5074471;28;20082;-52
2022/01/26 00:58:34;;;;;;;66.35;27.55;;;;;;;-145.00;100.00;60578.66;5074396;28;20091;-52
2022/01/26 01:01:03;;;;;;;87.88;37.42;;;;;;;-145.00;100.00;60578.66;5074367;28;20092;-52
2022/01/26 01:03:34;;;;;;;86.20;36.83;;;;;;;-145.00;100.00;60578.66;5073987;28;20074;-52
2022/01/26 01:06:06;;;;;;;91.78;38.75;;;;;;;-145.00;100.00;60578.66;5074774;28;20056;-52
2022/01/26 01:08:35;;;;;;;87.03;36.95;;;;;;;-145.00;100.00;60578.66;5074009;28;20052;-52
2022/01/26 01:11:04;;;;;;;83.10;34.17;;;;;;;-145.00;100.00;60578.66;5074243;28;20504;-52
2022/01/26 01:13:35;;;;;;;87.70;37.83;;;;;;;-145.00;100.00;60578.66;5074153;28;20083;-52
2022/01/26 01:16:04;;;;;;;84.72;37.15;;;;;;;-145.00;100.00;60578.66;5074793;28;20053;-52
2022/01/26 01:18:41;;;;;;;85.13;37.00;;;;;;;-145.00;100.00;60578.66;5073833;28;20060;-52
2022/01/26 01:21:46;;;;;;;83.15;36.55;;;;;;;-145.00;100.00;60578.66;5073552;28;20053;-52
2022/01/26 01:29:59;;;;;;;86.65;36.13;;;;;;;-145.00;100.00;60578.66;5040437;28;20060;-52
2022/01/26 01:32:36;;;;;;;86.63;36.88;;;;;;;-145.00;100.00;60578.66;5076908;28;20056;-52
2022/01/26 01:35:08;;;;;;;85.97;35.17;;;;;;;-145.00;100.00;60578.66;5077380;28;20056;-52
2022/01/26 01:37:36;;;;;;;82.22;36.10;;;;;;;-145.00;100.00;60578.66;5077371;28;20063;-52
2022/01/26 01:40:06;;;;;;;81.35;36.15;;;;;;;-145.00;100.00;60578.66;5077561;28;20537;-52
2022/01/26 01:42:36;;;;;;;84.55;35.42;;;;;;;-145.00;100.00;60578.66;5077442;28;20061;-52
2022/01/26 01:45:05;;;;;;;86.63;35.45;;;;;;;-145.00;100.00;60578.66;5078633;28;20064;-52
2022/01/26 01:47:33;;;;;;;94.38;37.72;;;;;;;-145.00;100.00;60578.66;5077417;28;20053;-52
2022/01/26 01:50:03;;;;;;;90.50;37.72;;;;;;;-145.00;100.00;60578.66;5077915;28;20495;-52
2022/01/26 01:52:31;;;;;;;79.20;33.80;;;;;;;-145.00;100.00;60578.66;5078380;28;20075;-52
2022/01/26 01:55:03;;;;;;;90.63;38.05;;;;;;;-145.00;100.00;60578.66;5078149;28;20052;-52
2022/01/26 01:57:32;;;;;;;89.47;37.22;;;;;;;-145.00;100.00;60578.66;5077004;28;20060;-52
2022/01/26 02:00:02;;;;;;;81.65;34.22;;;;;;;-145.00;100.00;60578.66;5077282;28;20442;-52
2022/01/26 02:02:30;;;;;;;82.32;34.28;;;;;;;-145.00;100.00;60578.66;5077457;28;20059;-52
2022/01/26 02:04:59;;;;;;;94.82;38.88;;;;;;;-145.00;100.00;60578.66;5077614;28;20063;-52
2022/01/26 02:07:27;;;;;;;96.28;38.45;;;;;;;-145.00;100.00;60578.66;5077846;28;20060;-52
2022/01/26 02:09:55;;;;;;;94.80;38.65;;;;;;;-145.00;100.00;60578.66;5077303;28;20431;-52
2022/01/26 02:12:26;;;;;;;86.88;35.15;;;;;;;-145.00;100.00;60578.66;5078033;28;20053;-52
2022/01/26 02:15:04;;;;;;;93.82;34.88;;;;;;;-145.00;100.00;60578.66;5077830;28;20056;-52
2022/01/26 02:17:54;;;;;;;87.53;34.90;;;;;;;-145.00;100.00;60578.66;5077804;28;20056;-52
2022/01/26 02:54:01;;;;;;;85.05;32.67;;;;;;;-145.00;100.00;60578.66;5076744;28;20053;-52
2022/01/26 02:56:41;;;;;;;86.93;35.63;;;;;;;-145.00;100.00;60578.66;5076172;28;20072;-52
2022/01/26 02:59:31;;;;;;;97.85;35.40;;;;;;;-145.00;100.00;60578.66;5076426;28;20065;-52
2022/01/26 03:02:02;;;;;;;84.95;34.10;;;;;;;-145.00;100.00;60578.66;5075732;28;20060;-52
2022/01/26 03:04:37;;;;;;;103.55;37.85;;;;;;;-145.00;100.00;60578.66;5075741;28;20102;-52
2022/01/26 03:07:12;;;;;;;85.45;33.42;;;;;;;-145.00;100.00;60578.66;5076562;28;20056;-52
2022/01/26 03:09:46;;;;;;;93.78;38.35;;;;;;;-145.00;100.00;60578.66;5075659;28;20064;-52
2022/01/26 03:12:24;;;;;;;98.10;37.78;;;;;;;-145.00;100.00;60578.66;5077026;28;20057;-52
2022/01/26 03:14:56;;;;;;;103.22;38.35;;;;;;;-145.00;100.00;60578.66;5075470;28;20063;-52
2022/01/26 03:17:39;;;;;;;113.13;41.08;;;;;;;-145.00;100.00;60578.66;5075756;28;20062;-52
2022/01/26 03:20:12;;;;;;;101.38;38.35;;;;;;;-145.00;100.00;60578.66;5076272;28;20056;-52
2022/01/26 03:28:20;;;;;;;101.47;39.33;;;;;;;-145.00;100.00;60578.66;5075250;28;20063;-52
2022/01/26 03:36:14;;;;;;;102.97;38.72;;;;;;;-145.00;100.00;60578.66;5075479;28;20048;-52
2022/01/26 03:38:45;;;;;;;100.18;39.95;;;;;;;-145.00;100.00;60578.66;5075657;28;20061;-52
2022/01/26 03:41:25;;;;;;;99.95;39.67;;;;;;;-145.00;100.00;60578.66;5075080;28;20063;-52
2022/01/26 03:43:53;;;;;;;104.65;40.17;;;;;;;-145.00;100.00;60578.66;5075282;28;20542;-52
2022/01/26 03:46:22;;;;;;;95.63;37.83;;;;;;;-145.00;100.00;60578.66;5075207;28;20105;-52
2022/01/26 03:48:50;;;;;;;95.53;37.92;;;;;;;-145.00;100.00;60578.66;5076236;28;20061;-52
2022/01/26 03:51:18;;;;;;;103.90;41.35;;;;;;;-145.00;100.00;60578.66;5075348;28;20063;-52
2022/01/26 03:53:46;;;;;;;103.35;41.28;;;;;;;-145.00;100.00;60578.66;5074892;28;20057;-52
2022/01/26 03:56:16;;;;;;;102.18;39.95;;;;;;;-145.00;100.00;60578.66;5074363;28;20064;-52
2022/01/26 03:58:44;;;;;;;96.75;38.05;;;;;;;-145.00;100.00;60578.66;5074793;28;20060;-52
2022/01/26 04:01:13;;;;;;;109.40;42.08;;;;;;;-145.00;100.00;60578.66;5075439;28;20053;-52
2022/01/26 04:03:42;;;;;;;110.00;42.08;;;;;;;-145.00;100.00;60578.66;5074740;28;20056;-52
2022/01/26 04:06:10;;;;;;;112.55;42.97;;;;;;;-145.00;100.00;60578.66;5075495;28;20052;-52
2022/01/26 04:08:41;;;;;;;123.10;43.10;;;;;;;-145.00;100.00;60578.66;5074714;28;20075;-52
2022/01/26 04:11:26;;;;;;;130.82;47.88;;;;;;;-145.00;100.00;60578.66;5075165;28;20056;-52
2022/01/26 04:13:56;;;;;;;122.68;45.05;;;;;;;-145.00;100.00;60578.66;5074606;28;20072;-52
2022/01/26 04:16:24;;;;;;;121.93;45.03;;;;;;;-145.00;100.00;60578.66;5074329;28;20057;-52
2022/01/26 04:18:55;;;;;;;121.20;43.28;;;;;;;-145.00;100.00;60578.66;5075662;28;20114;-52
2022/01/26 04:21:31;;;;;;;124.93;44.10;;;;;;;-145.00;100.00;60578.66;5074556;28;20061;-52
2022/01/26 04:24:03;;;;;;;127.20;43.10;;;;;;;-145.00;100.00;60578.66;5075461;28;20064;-52
2022/01/26 04:26:35;;;;;;;;;;;;;;;-145.00;100.00;60578.66;5075519;28;20061;-52
2022/01/26 04:29:10;;;;;;;;;;;;;;;-145.00;100.00;60578.66;5075841;28;20264;-52
2022/01/26 04:31:38;;;;;;;111.40;36.83;;;;;;;-145.00;100.00;60578.66;5074111;28;20315;-52
2022/01/26 04:34:06;;;;;;;114.70;41.20;;;;;;;-145.00;100.00;60578.66;5074247;28;20059;-52
2022/01/26 04:36:40;;;;;;;125.97;44.05;;;;;;;-145.00;100.00;60578.66;5074078;28;20071;-52
2022/01/26 04:39:12;;;;;;;115.55;43.45;;;;;;;-145.00;100.00;60578.66;5074028;28;20547;-52
2022/01/26 04:41:46;;;;;;;125.45;41.22;;;;;;;-145.00;100.00;60578.66;5074312;28;20416;-52
2022/01/26 04:44:21;;;;;;;126.25;43.30;;;;;;;-145.00;100.00;60578.66;5074694;28;20079;-52
2022/01/26 04:46:49;;;;;;;123.38;44.63;;;;;;;-145.00;100.00;60578.66;5075266;28;20060;-52
2022/01/26 04:49:18;;;;;;;128.18;44.95;;;;;;;-145.00;100.00;60578.66;5074289;28;20064;-52
2022/01/26 04:51:46;;;;;;;120.50;42.75;;;;;;;-145.00;100.00;60578.66;5074137;28;20060;-52
2022/01/26 04:54:15;;;;;;;130.55;45.67;;;;;;;-145.00;100.00;60578.66;5074588;28;20083;-52
2022/01/26 04:56:43;;;;;;;128.32;46.65;;;;;;;-145.00;100.00;60578.66;5074351;28;20060;-52
2022/01/26 04:59:12;;;;;;;133.52;46.55;;;;;;;-145.00;100.00;60578.66;5074818;28;20053;-52
2022/01/26 05:01:41;;;;;;;147.23;46.53;;;;;;;-145.00;100.00;60578.66;5074320;28;20071;-52
2022/01/26 05:04:10;;;;;;;133.23;47.10;;;;;;;-145.00;100.00;60578.66;5073981;28;20067;-55
2022/01/26 05:06:38;;;;;;;138.93;48.28;;;;;;;-145.00;100.00;60578.66;5078262;28;20057;-52
2022/01/26 05:09:06;;;;;;;138.07;48.97;;;;;;;-145.00;100.00;60578.66;5081457;28;20052;-52
2022/01/26 05:11:37;;;;;;;142.98;47.45;;;;;;;-145.00;100.00;60578.66;5080935;28;20131;-52
2022/01/26 05:14:06;;;;;;;148.35;48.47;;;;;;;-145.00;100.00;60578.66;5081188;28;20071;-52
2022/01/26 05:16:35;;;;;;;127.38;47.45;;;;;;;-145.00;100.00;60578.66;5080303;28;20063;-52
2022/01/26 05:19:06;;;;;;;128.63;47.20;;;;;;;-145.00;100.00;60578.66;5080524;28;20059;-52
2022/01/26 05:21:35;;;;;;;128.27;47.03;;;;;;;-145.00;100.00;60578.66;5081154;28;20057;-52
2022/01/26 05:24:04;;;;;;;122.55;46.35;;;;;;;-145.00;100.00;60578.66;5080498;28;20052;-52
2022/01/26 05:26:32;;;;;;;125.20;46.83;;;;;;;-145.00;100.00;60578.66;5081223;28;20092;-52
2022/01/26 05:29:00;;;;;;;127.13;47.83;;;;;;;-145.00;100.00;60578.66;5080743;28;20404;-52
2022/01/26 05:31:28;;;;;;;129.20;49.13;;;;;;;-145.00;100.00;60578.66;5080768;28;20052;-52
2022/01/26 05:33:57;;;;;;;124.30;48.30;;;;;;;-145.00;100.00;60578.66;5080754;28;20056;-52
2022/01/26 05:36:27;;;;;;;126.57;48.30;;;;;;;-145.00;100.00;60578.66;5080060;28;20540;-52
2022/01/26 05:38:55;;;;;;;120.15;46.60;;;;;;;-145.00;100.00;60578.66;5080672;28;20157;-52
2022/01/26 05:41:23;;;;;;;123.55;48.90;;;;;;;-145.00;100.00;60578.66;5080886;28;20117;-52
2022/01/26 05:43:51;;;;;;;109.78;45.83;;;;;;;-145.00;100.00;60578.66;5081319;28;20060;-52
2022/01/26 05:46:26;;;;;;;115.43;47.88;;;;;;;-145.00;100.00;60578.66;5080074;28;20056;-52
2022/01/26 05:48:55;;;;;;;115.85;46.08;;;;;;;-145.00;100.00;60578.66;5080025;28;20056;-52
2022/01/26 05:51:24;;;;;;;123.15;46.47;;;;;;;-145.00;100.00;60578.66;5080231;28;20049;-52
2022/01/26 05:53:53;;;;;;;101.85;40.53;;;;;;;-145.00;100.00;60578.66;5080244;28;20048;-52
2022/01/26 05:56:21;;;;;;;112.72;45.45;;;;;;;-145.00;100.00;60578.66;5080596;28;20056;-52
2022/01/26 05:58:50;;;;;;;101.85;40.05;;;;;;;-145.00;100.00;60578.66;5080311;28;20068;-52
2022/01/26 06:01:19;;;;;;;101.25;38.88;;;;;;;-145.00;100.00;60578.66;5080167;28;20056;-52
2022/01/26 06:03:48;;;;;;;116.15;42.85;;;;;;;-145.00;100.00;60578.66;5080461;28;20129;-52
2022/01/26 06:06:17;;;;;;;101.22;40.28;;;;;;;-145.00;100.00;60578.66;5079913;28;20067;-52
2022/01/26 06:08:45;;;;;;;107.47;42.67;;;;;;;-145.00;100.00;60578.66;5080064;28;20057;-52
2022/01/26 06:11:15;;;;;;;101.65;41.90;;;;;;;-145.00;100.00;60578.66;5080376;28;20057;-52
2022/01/26 06:13:43;;;;;;;95.65;40.75;;;;;;;-145.00;100.00;60578.66;5081192;28;20365;-52
2022/01/26 06:16:11;;;;;;;95.22;41.00;;;;;;;-145.00;100.00;60578.66;5080566;28;20056;-52
2022/01/26 06:18:39;;;;;;;92.43;38.45;;;;;;;-145.00;100.00;60578.66;5076602;28;20428;-52
2022/01/26 06:21:08;;;;;;;85.43;35.70;;;;;;;-145.00;100.00;60578.66;5077122;28;20052;-52
2022/01/26 06:23:36;;;;;;;89.07;36.22;;;;;;;-145.00;100.00;60578.66;5076786;28;20063;-52
2022/01/26 06:26:05;;;;;;;91.15;36.38;;;;;;;-145.00;100.00;60578.66;5077427;28;20088;-52
2022/01/26 06:28:35;;;;;;;92.25;37.38;;;;;;;-145.00;100.00;60578.66;5076912;28;20071;-52
2022/01/26 06:31:09;;;;;;;88.22;36.60;;;;;;;-145.00;100.00;60578.66;5077111;28;20131;-52
2022/01/26 06:33:40;;;;;;;93.82;36.40;;;;;;;-145.00;100.00;60578.66;5077481;28;20053;-52
2022/01/26 06:36:12;;;;;;;89.93;35.22;;;;;;;-145.00;100.00;60578.66;5076204;28;20066;-52
2022/01/26 06:38:41;;;;;;;87.70;33.58;;;;;;;-145.00;100.00;60578.66;5077403;28;20479;-52
2022/01/26 06:41:09;;;;;;;80.93;32.80;;;;;;;-145.00;100.00;60578.66;5076748;28;20052;-52
2022/01/26 06:43:47;;;;;;;76.97;33.45;;;;;;;-145.00;100.00;60578.66;5076572;28;20401;-52
2022/01/26 06:46:23;;;;;;;91.13;36.67;;;;;;;-145.00;100.00;60578.66;5076367;28;20056;-52
2022/01/26 06:51:37;;;;;;;95.35;36.97;;;;;;;-145.00;100.00;60578.66;5077385;28;20049;-52
2022/01/26 06:54:06;;;;;;;94.63;34.38;;;;;;;-145.00;100.00;60578.66;5076050;28;20056;-52
2022/01/26 06:56:34;;;;;;;99.20;39.92;;;;;;;-145.00;100.00;60578.66;5076128;28;20060;-52
2022/01/26 06:59:04;;;;;;;85.15;34.30;;;;;;;-145.00;100.00;60578.66;5077260;28;20183;-52
2022/01/26 07:01:32;;;;;;;87.68;37.83;;;;;;;-145.00;100.00;60578.66;5076062;28;20064;-52
2022/01/26 07:04:01;;;;;;;87.22;36.72;;;;;;;-145.00;100.00;60578.66;5076587;28;20053;-52
2022/01/26 07:06:29;;;;;;;88.88;35.17;;;;;;;-145.00;100.00;60578.66;5077144;28;20139;-52
2022/01/26 07:08:57;;;;;;;81.25;34.67;;;;;;;-145.00;100.00;60578.66;5076196;28;20053;-52
2022/01/26 07:11:25;;;;;;;88.82;35.60;;;;;;;-145.00;100.00;60578.66;5075821;28;20056;-52
2022/01/26 07:13:57;;;;;;;93.80;36.88;;;;;;;-145.00;100.00;60578.66;5075821;28;20063;-52
2022/01/26 07:21:59;;;;;;;85.90;32.55;;;;;;;-145.00;100.00;60578.66;5075402;28;20057;-52
2022/01/26 07:24:27;;;;;;;97.50;35.17;;;;;;;-145.00;100.00;60578.66;5075411;28;20053;-52
2022/01/26 07:26:55;;;;;;;97.47;34.15;;;;;;;-145.00;100.00;60578.66;5075547;28;20063;-52
2022/01/26 07:29:24;;;;;;;93.72;34.42;;;;;;;-145.00;100.00;60578.66;5074889;28;20079;-52
2022/01/26 07:31:54;;;;;;;87.20;35.05;;;;;;;-145.00;100.00;60578.66;5076077;28;20415;-52
2022/01/26 07:34:23;;;;;;;86.68;32.95;;;;;;;-145.00;100.00;60578.66;5075049;28;20141;-52
2022/01/26 07:36:54;;;;;;;86.60;33.92;;;;;;;-145.00;100.00;60578.66;5076302;28;20395;-52
2022/01/26 07:39:40;;;;;;;102.55;34.28;;;;;;;-145.00;100.00;60578.66;5076012;28;20155;-52
2022/01/26 07:42:09;;;;;;;87.75;32.83;;;;;;;-145.00;100.00;60578.66;5075737;28;20052;-52
2022/01/26 07:44:38;;;;;;;89.38;34.08;;;;;;;-145.00;100.00;60578.66;5076307;28;20052;-52
2022/01/26 07:47:08;;;;;;;87.35;34.53;;;;;;;-145.00;100.00;60578.66;5075088;28;20056;-52
2022/01/26 07:49:36;;;;;;;91.70;34.85;;;;;;;-145.00;100.00;60578.66;5076099;28;20392;-52
2022/01/26 07:52:05;;;;;;;84.95;34.00;;;;;;;-145.00;100.00;60578.66;5074992;28;20531;-52
2022/01/26 07:54:33;;;;;;;83.68;34.20;;;;;;;-145.00;100.00;60578.66;5076088;28;20052;-52
2022/01/26 07:57:01;;;;;;;92.28;33.92;;;;;;;-145.00;100.00;60578.66;5075086;28;20061;-52
2022/01/26 07:59:30;;;;;;;93.40;34.55;;;;;;;-145.00;100.00;60578.66;5075431;28;20399;-52
2022/01/26 08:01:58;;;;;;;102.47;38.97;;;;;;;-145.00;100.00;60578.66;5074849;28;20114;-52
2022/01/26 08:04:28;;;;;;;101.60;37.83;;;;;;;-145.00;100.00;60578.66;5074450;28;20052;-52
2022/01/26 08:06:57;;;;;;;116.30;40.13;;;;;;;-145.00;100.00;60578.66;5074430;28;20057;-52
2022/01/26 08:09:25;;;;;;;106.35;38.85;;;;;;;-145.00;100.00;60578.66;5074700;28;20059;-52
2022/01/26 08:11:54;;;;;;;110.35;38.90;;;;;;;-145.00;100.00;60578.66;5075509;28;20499;-52
2022/01/26 08:14:22;;;;;;;106.38;38.80;;;;;;;-145.00;100.00;60578.66;5075247;28;20065;-52
2022/01/26 08:16:50;;;;;;;114.55;40.63;;;;;;;-145.00;100.00;60578.66;5074486;28;20063;-52
2022/01/26 08:19:19;;;;;;;102.93;39.60;;;;;;;-145.00;100.00;60578.66;5074813;28;20063;-52
2022/01/26 08:21:48;;;;;;;111.32;41.63;;;;;;;-145.00;100.00;60578.66;5074737;28;20056;-52
2022/01/26 08:24:16;;;;;;;100.65;37.97;;;;;;;-145.00;100.00;60578.66;5075193;28;20063;-52
2022/01/26 08:26:47;;;;;;;106.20;37.53;;;;;;;-145.00;100.00;60578.66;5074313;28;20138;-52
2022/01/26 08:29:19;;;;;;;106.80;39.70;;;;;;;-145.00;100.00;60578.66;5074161;28;20053;-52
2022/01/26 08:31:47;;;;;;;81.60;28.77;;;;;;;-145.00;100.00;60578.66;5074030;28;20056;-52
2022/01/26 08:34:17;;;;;;;110.55;40.00;;;;;;;-145.00;100.00;60578.66;5074514;28;20496;-52
2022/01/26 08:36:45;;;;;;;116.25;42.00;;;;;;;-145.00;100.00;60578.66;5075279;28;20057;-52
2022/01/26 08:39:15;;;;;;;109.20;40.13;;;;;;;-145.00;100.00;60578.66;5074687;28;20056;-52
2022/01/26 08:41:43;;;;;;;108.43;41.17;;;;;;;-145.00;100.00;60578.66;5073372;28;20456;-52
2022/01/26 08:44:11;;;;;;;109.20;41.20;;;;;;;-145.00;100.00;60578.66;5074091;28;20056;-52
2022/01/26 08:46:40;;;;;;;114.97;43.40;;;;;;;-145.00;100.00;60578.66;5074074;28;20516;-52
2022/01/26 08:49:08;;;;;;;106.45;43.20;;;;;;;-145.00;100.00;60578.66;5074416;28;20063;-52
2022/01/26 08:51:37;;;;;;;108.75;41.33;;;;;;;-145.00;100.00;60578.66;5074055;28;20052;-52
2022/01/26 08:54:06;;;;;;;108.90;44.05;;;;;;;-145.00;100.00;60578.66;5074397;28;20060;-52
2022/01/26 08:56:36;;;;;;;103.65;38.72;;;;;;;-145.00;100.00;60578.66;5075123;28;20063;-52
2022/01/26 08:59:04;;;;;;;101.10;39.78;;;;;;;-145.00;100.00;60578.66;5073746;28;20053;-52
2022/01/26 09:01:33;;;;;;;112.47;41.80;;;;;;;-145.00;100.00;60578.66;5073899;28;20053;-52
2022/01/26 09:04:01;;;;;;;110.75;41.60;;;;;;;-145.00;100.00;60578.66;5074172;28;20096;-52
2022/01/26 09:06:31;;;;;;;112.03;42.40;;;;;;;-145.00;100.00;60578.66;5074533;28;20067;-52
2022/01/26 09:09:05;;;;;;;109.43;40.22;;;;;;;-145.00;100.00;60578.66;5074573;28;20056;-52
2022/01/26 09:11:36;;;;;;;100.55;38.95;;;;;;;-145.00;100.00;60578.66;5075056;28;20068;-52
2022/01/26 09:14:08;;;;;;;93.82;36.70;;;;;;;-145.00;100.00;60578.66;5073620;28;20057;-52
2022/01/26 09:16:36;;;;;;;89.45;36.90;;;;;;;-145.00;100.00;60578.66;5074284;28;20056;-52
2022/01/26 09:19:11;;;;;;;89.03;35.58;;;;;;;-145.00;100.00;60578.66;5073838;28;20053;-52
2022/01/26 09:21:39;;;;;;;85.28;35.92;;;;;;;-145.00;100.00;60578.66;5074472;28;20052;-52
2022/01/26 09:24:07;;;;;;;81.07;33.40;;;;;;;-145.00;100.00;60578.66;5074110;28;20052;-52
2022/01/26 09:26:35;;;;;;;77.35;32.83;;;;;;;-145.00;100.00;60578.66;5074105;28;20422;-52
2022/01/26 09:29:05;;;;;;;70.93;30.67;;;;;;;-145.00;100.00;60578.66;5073714;28;20071;-52
2022/01/26 09:31:34;;;;;;;73.07;29.98;;;;;;;-145.00;100.00;60578.66;5074011;28;20053;-52
2022/01/26 09:34:02;;;;;;;68.35;29.67;;;;;;;-145.00;100.00;60578.66;5074247;28;20060;-52
2022/01/26 09:36:30;;;;;;;63.10;28.67;;;;;;;-145.00;100.00;60578.66;5074533;28;20057;-52
2022/01/26 09:38:58;;;;;;;62.55;28.88;;;;;;;-145.00;100.00;60578.66;5073956;28;20053;-52
2022/01/26 09:41:27;;;;;;;58.28;26.75;;;;;;;-145.00;100.00;60578.66;5073588;28;20065;-52
2022/01/26 09:43:55;;;;;;;57.55;26.63;;;;;;;-145.00;100.00;60578.66;5073509;28;20101;-52
2022/01/26 09:46:25;;;;;;;54.08;25.17;;;;;;;-145.00;100.00;60578.66;5074162;28;20062;-52
2022/01/26 09:48:53;;;;;;;51.20;25.10;;;;;;;-145.00;100.00;60578.66;5073527;28;20063;-53
2022/01/26 09:51:22;;;;;;;50.25;24.23;;;;;;;-145.00;100.00;60578.66;5073846;28;20056;-53
2022/01/26 09:54:00;;;;;;;50.28;25.13;;;;;;;-145.00;100.00;60578.66;5076054;28;20067;-53
2022/01/26 09:56:29;;;;;;;53.03;23.58;;;;;;;-145.00;100.00;60578.66;5076910;28;20056;-53
2022/01/26 09:58:57;;;;;;;47.13;23.55;;;;;;;-145.00;100.00;60578.66;5077811;28;20060;-53
2022/01/26 10:01:27;;;;;;;43.95;23.73;;;;;;;-145.00;100.00;60578.66;5077559;28;20061;-53
2022/01/26 10:03:55;;;;;;;51.38;23.83;;;;;;;-145.00;100.00;60578.66;5077115;28;20048;-53
2022/01/26 10:06:27;;;;;;;43.45;22.38;;;;;;;-145.00;100.00;60578.66;5077107;28;20053;-53
2022/01/26 10:09:25;;;;;;;47.60;23.67;;;;;;;-145.00;100.00;60578.66;5077651;28;20063;-53
2022/01/26 10:17:35;;;;;;;43.25;21.88;;;;;;;-145.00;100.00;60578.66;5040932;28;20068;-53
2022/01/26 10:20:05;;;;;;;45.17;22.65;;;;;;;-145.00;100.00;60578.66;5077272;28;20060;-53
2022/01/26 10:22:35;;;;;;;40.08;22.00;;;;;;;-145.00;100.00;60578.66;5076469;28;20396;-53
2022/01/26 10:25:12;;;;;;;44.25;22.88;;;;;;;-145.00;100.00;60578.66;5077595;28;20060;-53
2022/01/26 10:28:00;;;;;;;40.67;20.77;;;;;;;-145.00;100.00;60578.66;5076820;28;20055;-53
2022/01/26 10:30:28;;;;;;;37.92;20.40;;;;;;;-145.00;100.00;60578.66;5076966;28;20060;-53
2022/01/26 10:32:58;;;;;;;47.67;23.60;;;;;;;-145.00;100.00;60578.66;5077675;28;20067;-53
2022/01/26 10:35:26;;;;;;;46.85;22.25;;;;;;;-145.00;100.00;60578.66;5076556;28;20500;-53
2022/01/26 10:37:56;;;;;;;48.55;21.42;;;;;;;-145.00;100.00;60578.66;5076420;28;20059;-53
2022/01/26 10:40:27;;;;;;;44.80;22.27;;;;;;;-145.00;100.00;60578.66;5076453;28;20060;-53
2022/01/26 10:42:57;;;;;;;45.03;21.30;;;;;;;-145.00;100.00;60578.66;5077224;28;20056;-53
2022/01/26 10:45:43;;;;;;;43.85;20.35;;;;;;;-145.00;100.00;60578.66;5077004;28;20057;-53
2022/01/26 10:48:23;;;;;;;42.65;21.25;;;;;;;-145.00;100.00;60578.66;5077184;28;20412;-53
2022/01/26 10:53:41;;;;;;;43.13;21.02;;;;;;;-145.00;100.00;60578.66;5076833;28;20075;-53
2022/01/26 10:56:09;;;;;;;38.92;19.27;;;;;;;-145.00;100.00;60578.66;5077331;28;20052;-53
2022/01/26 10:58:37;;;;;;;41.13;21.38;;;;;;;-145.00;100.00;60578.66;5076207;28;20071;-53
2022/01/26 11:01:06;;;;;;;39.83;20.88;;;;;;;-145.00;100.00;60578.66;5076004;28;20057;-53
2022/01/26 11:03:36;;;;;;;39.92;18.40;;;;;;;-145.00;100.00;60578.66;5075670;28;20142;-53
2022/01/26 11:06:05;;;;;;;40.50;19.40;;;;;;;-145.00;100.00;60578.66;5076513;28;20091;-53
2022/01/26 11:08:37;;;;;;;39.90;20.10;;;;;;;-145.00;100.00;60578.66;5076192;28;20072;-53
2022/01/26 11:11:06;;;;;;;42.00;19.52;;;;;;;-145.00;100.00;60578.66;5076490;28;20056;-53
2022/01/26 11:13:36;;;;;;;41.75;20.40;;;;;;;-145.00;100.00;60578.66;5076352;28;20057;-53
2022/01/26 11:16:08;;;;;;;43.15;20.50;;;;;;;-145.00;100.00;60578.66;5075819;28;20052;-53
2022/01/26 11:18:52;;;;;;;38.72;19.65;;;;;;;-145.00;100.00;60578.66;5076301;28;20057;-52
2022/01/26 11:21:28;;;;;;;32.75;18.40;;;;;;;-145.00;100.00;60578.66;5076822;28;20068;-52
2022/01/26 11:24:11;;;;;;;39.05;19.50;;;;;;;-145.00;100.00;60578.66;5075643;28;20063;-52
2022/01/26 11:26:41;;;;;;;40.70;20.08;;;;;;;-145.00;100.00;60578.66;5075654;28;20056;-52
2022/01/26 11:29:17;;;;;;;38.38;19.33;;;;;;;-145.00;100.00;60578.66;5076301;28;20057;-52
2022/01/26 11:31:46;;;;;;;36.35;19.50;;;;;;;-145.00;100.00;60578.66;5075850;28;20052;-52
2022/01/26 11:34:20;;;;;;;40.72;19.23;;;;;;;-145.00;100.00;60578.66;5075701;28;20057;-52
2022/01/26 11:36:50;;;;;;;38.05;19.10;;;;;;;-145.00;100.00;60578.66;5075435;28;20053;-52
2022/01/26 11:45:08;;;;;;;43.03;20.40;;;;;;;-145.00;100.00;60578.66;5070173;28;20064;-52
2022/01/26 11:47:40;;;;;;;;;;;;;;;-145.00;100.00;60578.66;5075330;28;20064;-52
2022/01/26 11:50:14;;;;;;;37.28;19.52;;;;;;;-145.00;100.00;60578.66;5074945;28;19927;-52
2022/01/26 11:52:46;;;;;;;38.15;18.15;;;;;;;-145.00;100.00;60578.66;5075583;28;20060;-52
2022/01/26 11:55:28;;;;;;;;;;;;;;;-145.00;100.00;60578.66;5075123;28;20071;-52
2022/01/26 11:58:07;;;;;;;35.67;16.80;;;;;;;-145.00;100.00;60578.66;5074423;28;19927;-52
2022/01/26 12:00:42;;;;;;;41.55;21.38;;;;;;;-145.00;100.00;60578.66;5074695;28;20071;-52
2022/01/26 12:03:21;;;;;;;43.90;20.30;;;;;;;-145.00;100.00;60578.66;5075294;28;20453;-52
2022/01/26 12:05:54;;;;;;;38.78;19.92;;;;;;;-145.00;100.00;60578.66;5074471;28;20114;-52
2022/01/26 12:08:39;;;;;;;37.25;18.15;;;;;;;-145.00;100.00;60578.66;5075882;28;20472;-52
2022/01/26 12:11:10;;;;;;;38.40;18.95;;;;;;;-145.00;100.00;60578.66;5075749;28;20139;-52
2022/01/26 12:13:40;;;;;;;46.75;20.35;;;;;;;-145.00;100.00;60578.66;5074413;28;20064;-52
2022/01/26 12:16:12;;;;;;;37.20;18.33;;;;;;;-145.00;100.00;60578.66;5073620;28;20071;-52
2022/01/26 12:18:46;;;;;;;41.67;18.73;;;;;;;-145.00;100.00;60578.66;5074604;28;20064;-52
2022/01/26 12:32:55;;;;;;;35.33;18.88;;;;;;;-145.00;100.00;60578.66;5074060;28;20057;-52
2022/01/26 12:35:38;;;;;;;36.95;17.85;;;;;;;-145.00;100.00;60578.66;5075388;28;20056;-52
2022/01/26 12:38:14;;;;;;;39.25;19.88;;;;;;;-145.00;100.00;60578.66;5074784;28;20067;-52
2022/01/26 12:43:35;;;;;;;36.22;18.58;;;;;;;-145.00;100.00;60578.66;5075038;28;20067;-52
2022/01/26 12:46:05;;;;;;;36.05;17.90;;;;;;;-145.00;100.00;60578.66;5073892;28;20422;-53
2022/01/26 12:48:34;;;;;;;34.63;17.73;;;;;;;-145.00;100.00;60578.66;5074402;28;20057;-52
2022/01/26 12:51:04;;;;;;;29.67;17.58;;;;;;;-145.00;100.00;60578.66;5074408;28;20056;-52
2022/01/26 12:53:35;;;;;;;31.75;17.65;;;;;;;-145.00;100.00;60578.66;5074397;28;20536;-52
2022/01/26 12:56:06;;;;;;;33.75;17.52;;;;;;;-145.00;100.00;60578.66;5074600;28;20530;-52
2022/01/26 12:58:35;;;;;;;31.48;16.15;;;;;;;-145.00;100.00;60578.66;5075240;28;20064;-52
2022/01/26 13:01:06;;;;;;;34.13;18.27;;;;;;;-145.00;100.00;60578.66;5074336;28;20060;-53
2022/01/26 13:03:36;;;;;;;35.50;19.05;;;;;;;-145.00;100.00;60578.66;5074275;28;20118;-52
2022/01/26 13:06:06;;;;;;;39.70;23.77;;;;;;;-145.00;100.00;60578.66;5074656;28;20084;-52
2022/01/26 13:08:43;;;;;;;32.55;19.02;;;;;;;-145.00;100.00;60578.66;5074005;28;20067;-52
2022/01/26 13:11:12;;;;;;;33.85;16.48;;;;;;;-145.00;100.00;60578.66;5073766;28;20059;-52
2022/01/26 13:13:41;;;;;;;30.65;16.77;;;;;;;-145.00;100.00;60578.66;5073933;28;20139;-52
2022/01/26 13:16:24;;;;;;;37.13;17.65;;;;;;;-145.00;100.00;60578.66;5075037;28;20053;-52
2022/01/26 13:19:14;;;;;;;30.75;16.33;;;;;;;-145.00;100.00;60578.66;5073839;28;20534;-52
2022/01/26 13:24:36;;;;;;;33.33;17.42;;;;;;;-145.00;100.00;60578.66;5071461;28;20079;-52